sensor_id;sensor_type;location;lat;lon;timestamp;P1;durP1;ratioP1;P2;durP2;ratioP2
14516;SDS011;7344;50.864;4.362;2022-12-16T00:00:36;54.20;;;34.43;;
14516;SDS011;7344;50.864;4.362;2022-12-16T00:03:01;56.80;;;35.57;;
14516;SDS011;7344;50.864;4.362;2022-12-16T00:05:27;53.13;;;34.57;;
14516;SDS011;7344;50.864;4.362;2022-12-16T00:07:53;61.50;;;35.87;;
14516;SDS011;7344;50.864;4.362;2022-12-16T00:10:19;56.60;;;34.57;;
14516;SDS011;7344;50.864;4.362;2022-12-16T00:12:45;55.30;;;34.47;;
14516;SDS011;7344;50.864;4.362;2022-12-16T00:15:11;56.07;;;34.73;;
14516;SDS011;7344;50.864;4.362;2022-12-16T00:17:36;55.80;;;33.20;;
14516;SDS011;7344;50.864;4.362;2022-12-16T00:20:03;62.50;;;35.47;;
14516;SDS011;7344;50.864;4.362;2022-12-16T00:22:30;50.30;;;31.47;;
14516;SDS011;7344;50.864;4.362;2022-12-16T00:24:55;51.33;;;30.77;;
14516;SDS011;7344;50.864;4.362;2022-12-16T00:27:21;51.70;;;32.03;;
14516;SDS011;7344;50.864;4.362;2022-12-16T00:29:47;49.30;;;30.27;;
14516;SDS011;7344;50.864;4.362;2022-12-16T00:32:12;51.63;;;32.70;;
14516;SDS011;7344;50.864;4.362;2022-12-16T00:34:38;57.77;;;33.10;;
14516;SDS011;7344;50.864;4.362;2022-12-16T00:37:03;52.97;;;32.47;;
14516;SDS011;7344;50.864;4.362;2022-12-16T00:39:29;54.57;;;33.07;;
14516;SDS011;7344;50.864;4.362;2022-12-16T00:41:54;51.87;;;32.73;;
14516;SDS011;7344;50.864;4.362;2022-12-16T00:44:20;50.03;;;32.47;;
14516;SDS011;7344;50.864;4.362;2022-12-16T00:46:46;52.83;;;32.50;;
14516;SDS011;7344;50.864;4.362;2022-12-16T00:49:11;51.80;;;32.60;;
14516;SDS011;7344;50.864;4.362;2022-12-16T00:51:37;50.33;;;31.03;;
14516;SDS011;7344;50.864;4.362;2022-12-16T00:54:02;49.43;;;30.87;;
14516;SDS011;7344;50.864;4.362;2022-12-16T00:56:28;50.50;;;31.57;;
14516;SDS011;7344;50.864;4.362;2022-12-16T00:58:53;44.87;;;28.57;;
14516;SDS011;7344;50.864;4.362;2022-12-16T01:01:19;49.77;;;30.67;;
14516;SDS011;7344;50.864;4.362;2022-12-16T01:03:45;49.27;;;28.83;;
14516;SDS011;7344;50.864;4.362;2022-12-16T01:06:11;48.73;;;30.83;;
14516;SDS011;7344;50.864;4.362;2022-12-16T01:08:38;48.57;;;31.77;;
14516;SDS011;7344;50.864;4.362;2022-12-16T01:11:04;46.93;;;29.47;;
14516;SDS011;7344;50.864;4.362;2022-12-16T01:13:30;48.13;;;29.80;;
14516;SDS011;7344;50.864;4.362;2022-12-16T01:16:00;51.37;;;30.93;;
14516;SDS011;7344;50.864;4.362;2022-12-16T01:18:26;44.87;;;29.70;;
14516;SDS011;7344;50.864;4.362;2022-12-16T01:20:52;45.07;;;29.83;;
14516;SDS011;7344;50.864;4.362;2022-12-16T01:23:17;45.07;;;29.33;;
14516;SDS011;7344;50.864;4.362;2022-12-16T01:25:43;46.50;;;29.67;;
14516;SDS011;7344;50.864;4.362;2022-12-16T01:28:09;47.27;;;29.63;;
14516;SDS011;7344;50.864;4.362;2022-12-16T01:30:34;49.00;;;30.43;;
14516;SDS011;7344;50.864;4.362;2022-12-16T01:33:00;48.23;;;29.33;;
14516;SDS011;7344;50.864;4.362;2022-12-16T01:35:26;50.00;;;30.47;;
14516;SDS011;7344;50.864;4.362;2022-12-16T01:37:51;51.90;;;31.07;;
14516;SDS011;7344;50.864;4.362;2022-12-16T01:40:18;50.57;;;30.37;;
14516;SDS011;7344;50.864;4.362;2022-12-16T01:42:46;47.80;;;29.17;;
14516;SDS011;7344;50.864;4.362;2022-12-16T01:48:07;49.57;;;29.83;;
14516;SDS011;7344;50.864;4.362;2022-12-16T01:50:55;47.63;;;30.53;;
14516;SDS011;7344;50.864;4.362;2022-12-16T01:53:26;49.80;;;30.97;;
14516;SDS011;7344;50.864;4.362;2022-12-16T01:55:52;50.80;;;30.27;;
14516;SDS011;7344;50.864;4.362;2022-12-16T01:58:22;52.83;;;31.67;;
14516;SDS011;7344;50.864;4.362;2022-12-16T02:00:51;48.33;;;30.47;;
14516;SDS011;7344;50.864;4.362;2022-12-16T02:03:17;51.57;;;31.03;;
14516;SDS011;7344;50.864;4.362;2022-12-16T02:05:43;47.63;;;29.60;;
14516;SDS011;7344;50.864;4.362;2022-12-16T02:08:12;52.90;;;31.97;;
14516;SDS011;7344;50.864;4.362;2022-12-16T02:15:56;48.47;;;30.40;;
14516;SDS011;7344;50.864;4.362;2022-12-16T02:21:36;50.47;;;29.37;;
14516;SDS011;7344;50.864;4.362;2022-12-16T02:27:13;51.00;;;29.97;;
14516;SDS011;7344;50.864;4.362;2022-12-16T02:30:17;47.70;;;30.13;;
14516;SDS011;7344;50.864;4.362;2022-12-16T02:33:08;49.27;;;30.47;;
14516;SDS011;7344;50.864;4.362;2022-12-16T02:36:07;47.60;;;30.33;;
14516;SDS011;7344;50.864;4.362;2022-12-16T02:38:47;51.13;;;30.83;;
14516;SDS011;7344;50.864;4.362;2022-12-16T02:44:05;50.87;;;29.93;;
14516;SDS011;7344;50.864;4.362;2022-12-16T02:46:37;50.87;;;31.20;;
14516;SDS011;7344;50.864;4.362;2022-12-16T02:49:48;48.03;;;31.60;;
14516;SDS011;7344;50.864;4.362;2022-12-16T02:51:53;47.07;;;30.27;;
14516;SDS011;7344;50.864;4.362;2022-12-16T02:54:21;52.00;;;30.47;;
14516;SDS011;7344;50.864;4.362;2022-12-16T02:59:36;48.10;;;30.57;;
14516;SDS011;7344;50.864;4.362;2022-12-16T03:02:19;52.80;;;30.40;;
14516;SDS011;7344;50.864;4.362;2022-12-16T03:04:56;47.00;;;30.43;;
14516;SDS011;7344;50.864;4.362;2022-12-16T03:07:26;44.90;;;30.40;;
14516;SDS011;7344;50.864;4.362;2022-12-16T03:09:55;50.70;;;31.37;;
14516;SDS011;7344;50.864;4.362;2022-12-16T03:12:22;49.67;;;30.60;;
14516;SDS011;7344;50.864;4.362;2022-12-16T03:14:49;49.80;;;30.13;;
14516;SDS011;7344;50.864;4.362;2022-12-16T03:17:17;49.97;;;31.13;;
14516;SDS011;7344;50.864;4.362;2022-12-16T03:19:51;47.77;;;30.07;;
14516;SDS011;7344;50.864;4.362;2022-12-16T03:22:22;47.87;;;30.07;;
14516;SDS011;7344;50.864;4.362;2022-12-16T03:24:53;53.73;;;32.57;;
14516;SDS011;7344;50.864;4.362;2022-12-16T03:27:20;53.13;;;31.30;;
14516;SDS011;7344;50.864;4.362;2022-12-16T03:30:10;46.03;;;30.03;;
14516;SDS011;7344;50.864;4.362;2022-12-16T03:35:18;46.90;;;29.90;;
14516;SDS011;7344;50.864;4.362;2022-12-16T03:37:48;46.97;;;29.90;;
14516;SDS011;7344;50.864;4.362;2022-12-16T03:40:19;47.53;;;29.50;;
14516;SDS011;7344;50.864;4.362;2022-12-16T03:42:46;43.73;;;28.37;;
14516;SDS011;7344;50.864;4.362;2022-12-16T03:45:15;51.63;;;28.83;;
14516;SDS011;7344;50.864;4.362;2022-12-16T03:47:50;45.70;;;28.23;;
14516;SDS011;7344;50.864;4.362;2022-12-16T03:50:20;45.57;;;27.40;;
14516;SDS011;7344;50.864;4.362;2022-12-16T03:52:52;44.90;;;28.23;;
14516;SDS011;7344;50.864;4.362;2022-12-16T03:55:18;53.23;;;30.07;;
14516;SDS011;7344;50.864;4.362;2022-12-16T03:57:43;46.37;;;29.13;;
14516;SDS011;7344;50.864;4.362;2022-12-16T04:00:09;46.33;;;29.33;;
14516;SDS011;7344;50.864;4.362;2022-12-16T04:02:35;50.63;;;30.23;;
14516;SDS011;7344;50.864;4.362;2022-12-16T04:05:01;52.73;;;29.50;;
14516;SDS011;7344;50.864;4.362;2022-12-16T04:07:26;51.53;;;29.60;;
14516;SDS011;7344;50.864;4.362;2022-12-16T04:09:52;54.53;;;30.70;;
14516;SDS011;7344;50.864;4.362;2022-12-16T04:12:18;46.93;;;28.93;;
14516;SDS011;7344;50.864;4.362;2022-12-16T04:15:03;48.80;;;29.07;;
14516;SDS011;7344;50.864;4.362;2022-12-16T04:17:47;54.63;;;30.00;;
14516;SDS011;7344;50.864;4.362;2022-12-16T04:20:33;50.40;;;29.63;;
14516;SDS011;7344;50.864;4.362;2022-12-16T04:23:19;51.27;;;29.60;;
14516;SDS011;7344;50.864;4.362;2022-12-16T04:26:04;51.67;;;28.87;;
14516;SDS011;7344;50.864;4.362;2022-12-16T04:28:30;50.87;;;29.77;;
14516;SDS011;7344;50.864;4.362;2022-12-16T04:30:55;55.80;;;30.97;;
14516;SDS011;7344;50.864;4.362;2022-12-16T04:33:22;58.10;;;30.43;;
14516;SDS011;7344;50.864;4.362;2022-12-16T04:36:06;55.37;;;30.13;;
14516;SDS011;7344;50.864;4.362;2022-12-16T04:38:51;51.50;;;30.17;;
14516;SDS011;7344;50.864;4.362;2022-12-16T04:41:35;54.50;;;31.33;;
14516;SDS011;7344;50.864;4.362;2022-12-16T04:44:19;56.57;;;30.67;;
14516;SDS011;7344;50.864;4.362;2022-12-16T04:47:03;51.17;;;30.50;;
14516;SDS011;7344;50.864;4.362;2022-12-16T04:49:48;60.37;;;31.93;;
14516;SDS011;7344;50.864;4.362;2022-12-16T04:52:32;56.10;;;31.97;;
14516;SDS011;7344;50.864;4.362;2022-12-16T04:55:16;63.17;;;31.43;;
14516;SDS011;7344;50.864;4.362;2022-12-16T04:58:00;62.70;;;32.37;;
14516;SDS011;7344;50.864;4.362;2022-12-16T05:00:46;66.57;;;34.40;;
14516;SDS011;7344;50.864;4.362;2022-12-16T05:03:31;63.63;;;32.33;;
14516;SDS011;7344;50.864;4.362;2022-12-16T05:06:16;62.40;;;34.03;;
14516;SDS011;7344;50.864;4.362;2022-12-16T05:09:01;67.87;;;33.83;;
14516;SDS011;7344;50.864;4.362;2022-12-16T05:11:45;70.40;;;34.27;;
14516;SDS011;7344;50.864;4.362;2022-12-16T05:14:30;64.77;;;33.93;;
14516;SDS011;7344;50.864;4.362;2022-12-16T05:17:14;70.13;;;35.60;;
14516;SDS011;7344;50.864;4.362;2022-12-16T05:19:59;70.47;;;35.17;;
14516;SDS011;7344;50.864;4.362;2022-12-16T05:22:43;68.73;;;34.67;;
14516;SDS011;7344;50.864;4.362;2022-12-16T05:25:27;66.43;;;34.60;;
14516;SDS011;7344;50.864;4.362;2022-12-16T05:28:11;65.17;;;35.37;;
14516;SDS011;7344;50.864;4.362;2022-12-16T05:30:55;68.57;;;33.93;;
14516;SDS011;7344;50.864;4.362;2022-12-16T05:33:39;66.27;;;35.70;;
14516;SDS011;7344;50.864;4.362;2022-12-16T05:36:24;71.40;;;34.60;;
14516;SDS011;7344;50.864;4.362;2022-12-16T05:39:07;71.03;;;36.27;;
14516;SDS011;7344;50.864;4.362;2022-12-16T05:41:51;66.87;;;35.40;;
14516;SDS011;7344;50.864;4.362;2022-12-16T05:44:36;65.63;;;32.60;;
14516;SDS011;7344;50.864;4.362;2022-12-16T05:47:21;65.37;;;34.03;;
14516;SDS011;7344;50.864;4.362;2022-12-16T05:50:05;65.10;;;34.13;;
14516;SDS011;7344;50.864;4.362;2022-12-16T05:52:50;63.30;;;33.63;;
14516;SDS011;7344;50.864;4.362;2022-12-16T05:55:35;61.70;;;32.30;;
14516;SDS011;7344;50.864;4.362;2022-12-16T05:58:19;59.63;;;31.60;;
14516;SDS011;7344;50.864;4.362;2022-12-16T06:01:04;58.00;;;30.67;;
14516;SDS011;7344;50.864;4.362;2022-12-16T06:03:48;52.90;;;29.67;;
14516;SDS011;7344;50.864;4.362;2022-12-16T06:06:32;60.07;;;31.33;;
14516;SDS011;7344;50.864;4.362;2022-12-16T06:09:16;63.57;;;31.73;;
14516;SDS011;7344;50.864;4.362;2022-12-16T06:12:00;56.53;;;31.70;;
14516;SDS011;7344;50.864;4.362;2022-12-16T06:14:44;58.13;;;30.67;;
14516;SDS011;7344;50.864;4.362;2022-12-16T06:17:28;54.80;;;30.67;;
14516;SDS011;7344;50.864;4.362;2022-12-16T06:20:12;57.47;;;31.47;;
14516;SDS011;7344;50.864;4.362;2022-12-16T06:22:56;51.97;;;29.90;;
14516;SDS011;7344;50.864;4.362;2022-12-16T06:25:40;51.80;;;29.87;;
14516;SDS011;7344;50.864;4.362;2022-12-16T06:28:24;49.93;;;27.30;;
14516;SDS011;7344;50.864;4.362;2022-12-16T06:31:09;57.00;;;28.23;;
14516;SDS011;7344;50.864;4.362;2022-12-16T06:33:53;56.47;;;29.37;;
14516;SDS011;7344;50.864;4.362;2022-12-16T06:36:37;50.33;;;27.70;;
14516;SDS011;7344;50.864;4.362;2022-12-16T06:39:22;48.07;;;27.83;;
14516;SDS011;7344;50.864;4.362;2022-12-16T06:42:06;48.97;;;27.17;;
14516;SDS011;7344;50.864;4.362;2022-12-16T06:44:50;54.07;;;28.20;;
14516;SDS011;7344;50.864;4.362;2022-12-16T06:47:34;45.03;;;26.77;;
14516;SDS011;7344;50.864;4.362;2022-12-16T06:50:18;53.30;;;27.57;;
14516;SDS011;7344;50.864;4.362;2022-12-16T06:53:02;47.27;;;27.73;;
14516;SDS011;7344;50.864;4.362;2022-12-16T06:55:46;51.77;;;28.10;;
14516;SDS011;7344;50.864;4.362;2022-12-16T06:58:30;49.27;;;28.10;;
14516;SDS011;7344;50.864;4.362;2022-12-16T07:01:15;46.03;;;27.53;;
14516;SDS011;7344;50.864;4.362;2022-12-16T07:03:59;46.93;;;26.00;;
14516;SDS011;7344;50.864;4.362;2022-12-16T07:06:50;53.57;;;28.57;;
14516;SDS011;7344;50.864;4.362;2022-12-16T07:09:35;56.00;;;28.00;;
14516;SDS011;7344;50.864;4.362;2022-12-16T07:12:26;46.47;;;27.43;;
14516;SDS011;7344;50.864;4.362;2022-12-16T07:15:10;48.67;;;27.23;;
14516;SDS011;7344;50.864;4.362;2022-12-16T07:17:55;51.13;;;28.50;;
14516;SDS011;7344;50.864;4.362;2022-12-16T07:20:39;51.63;;;29.23;;
14516;SDS011;7344;50.864;4.362;2022-12-16T07:23:23;55.50;;;28.73;;
14516;SDS011;7344;50.864;4.362;2022-12-16T07:26:07;53.50;;;29.40;;
14516;SDS011;7344;50.864;4.362;2022-12-16T07:28:51;49.00;;;27.13;;
14516;SDS011;7344;50.864;4.362;2022-12-16T07:31:35;49.87;;;27.33;;
14516;SDS011;7344;50.864;4.362;2022-12-16T07:34:19;44.10;;;25.40;;
14516;SDS011;7344;50.864;4.362;2022-12-16T07:37:03;43.87;;;25.43;;
14516;SDS011;7344;50.864;4.362;2022-12-16T07:39:47;49.10;;;26.47;;
14516;SDS011;7344;50.864;4.362;2022-12-16T07:42:31;45.33;;;25.57;;
14516;SDS011;7344;50.864;4.362;2022-12-16T07:45:15;40.47;;;25.50;;
14516;SDS011;7344;50.864;4.362;2022-12-16T07:47:59;36.43;;;23.97;;
14516;SDS011;7344;50.864;4.362;2022-12-16T07:50:43;35.43;;;22.53;;
14516;SDS011;7344;50.864;4.362;2022-12-16T07:53:27;40.57;;;24.40;;
14516;SDS011;7344;50.864;4.362;2022-12-16T07:56:25;40.43;;;22.63;;
14516;SDS011;7344;50.864;4.362;2022-12-16T07:59:09;40.40;;;22.47;;
14516;SDS011;7344;50.864;4.362;2022-12-16T08:01:54;35.83;;;21.90;;
14516;SDS011;7344;50.864;4.362;2022-12-16T08:04:38;35.77;;;23.00;;
14516;SDS011;7344;50.864;4.362;2022-12-16T08:07:22;38.27;;;21.83;;
14516;SDS011;7344;50.864;4.362;2022-12-16T08:10:06;36.03;;;21.47;;
14516;SDS011;7344;50.864;4.362;2022-12-16T08:12:50;33.43;;;20.70;;
14516;SDS011;7344;50.864;4.362;2022-12-16T08:15:34;37.73;;;19.90;;
14516;SDS011;7344;50.864;4.362;2022-12-16T08:18:18;35.73;;;21.43;;
14516;SDS011;7344;50.864;4.362;2022-12-16T08:21:02;35.80;;;21.43;;
14516;SDS011;7344;50.864;4.362;2022-12-16T08:23:47;38.27;;;22.90;;
14516;SDS011;7344;50.864;4.362;2022-12-16T08:26:31;37.63;;;23.70;;
14516;SDS011;7344;50.864;4.362;2022-12-16T08:29:14;40.53;;;24.03;;
14516;SDS011;7344;50.864;4.362;2022-12-16T08:31:58;42.47;;;23.57;;
14516;SDS011;7344;50.864;4.362;2022-12-16T08:34:42;34.37;;;22.30;;
14516;SDS011;7344;50.864;4.362;2022-12-16T08:37:26;33.03;;;21.63;;
14516;SDS011;7344;50.864;4.362;2022-12-16T08:40:10;35.20;;;21.93;;
14516;SDS011;7344;50.864;4.362;2022-12-16T08:42:55;35.80;;;20.60;;
14516;SDS011;7344;50.864;4.362;2022-12-16T08:45:40;39.87;;;21.90;;
14516;SDS011;7344;50.864;4.362;2022-12-16T08:48:25;35.37;;;22.83;;
14516;SDS011;7344;50.864;4.362;2022-12-16T08:51:09;36.13;;;21.97;;
14516;SDS011;7344;50.864;4.362;2022-12-16T08:53:53;37.70;;;21.33;;
14516;SDS011;7344;50.864;4.362;2022-12-16T08:56:37;35.40;;;21.10;;
14516;SDS011;7344;50.864;4.362;2022-12-16T08:59:21;38.27;;;22.10;;
14516;SDS011;7344;50.864;4.362;2022-12-16T09:02:05;34.70;;;21.00;;
14516;SDS011;7344;50.864;4.362;2022-12-16T09:04:49;42.47;;;22.53;;
14516;SDS011;7344;50.864;4.362;2022-12-16T09:07:33;36.50;;;21.93;;
14516;SDS011;7344;50.864;4.362;2022-12-16T09:10:17;41.60;;;23.70;;
14516;SDS011;7344;50.864;4.362;2022-12-16T09:13:09;42.57;;;22.37;;
14516;SDS011;7344;50.864;4.362;2022-12-16T09:15:58;39.17;;;23.13;;
14516;SDS011;7344;50.864;4.362;2022-12-16T09:18:42;41.63;;;23.27;;
14516;SDS011;7344;50.864;4.362;2022-12-16T09:21:27;41.33;;;22.57;;
14516;SDS011;7344;50.864;4.362;2022-12-16T09:24:11;38.90;;;23.80;;
14516;SDS011;7344;50.864;4.362;2022-12-16T09:26:55;42.23;;;24.13;;
14516;SDS011;7344;50.864;4.362;2022-12-16T09:29:39;43.17;;;23.97;;
14516;SDS011;7344;50.864;4.362;2022-12-16T09:32:23;42.67;;;25.73;;
14516;SDS011;7344;50.864;4.362;2022-12-16T09:35:07;45.17;;;24.77;;
14516;SDS011;7344;50.864;4.362;2022-12-16T09:37:52;39.00;;;23.53;;
14516;SDS011;7344;50.864;4.362;2022-12-16T09:40:36;43.37;;;25.17;;
14516;SDS011;7344;50.864;4.362;2022-12-16T09:52:04;40.17;;;23.83;;
14516;SDS011;7344;50.864;4.362;2022-12-16T09:54:54;38.97;;;22.10;;
14516;SDS011;7344;50.864;4.362;2022-12-16T09:57:39;40.33;;;23.30;;
14516;SDS011;7344;50.864;4.362;2022-12-16T10:00:26;40.63;;;24.13;;
14516;SDS011;7344;50.864;4.362;2022-12-16T10:03:53;51.93;;;23.20;;
14516;SDS011;7344;50.864;4.362;2022-12-16T10:15:30;42.17;;;24.17;;
14516;SDS011;7344;50.864;4.362;2022-12-16T10:21:27;43.83;;;23.97;;
14516;SDS011;7344;50.864;4.362;2022-12-16T10:27:44;43.67;;;25.47;;
14516;SDS011;7344;50.864;4.362;2022-12-16T10:30:36;44.97;;;25.17;;
14516;SDS011;7344;50.864;4.362;2022-12-16T10:33:23;44.17;;;24.50;;
14516;SDS011;7344;50.864;4.362;2022-12-16T10:36:16;39.93;;;23.20;;
14516;SDS011;7344;50.864;4.362;2022-12-16T10:39:16;38.50;;;24.03;;
14516;SDS011;7344;50.864;4.362;2022-12-16T10:42:35;43.87;;;24.60;;
14516;SDS011;7344;50.864;4.362;2022-12-16T10:45:23;46.70;;;24.13;;
14516;SDS011;7344;50.864;4.362;2022-12-16T10:48:12;38.07;;;23.27;;
14516;SDS011;7344;50.864;4.362;2022-12-16T10:50:59;39.97;;;24.27;;
14516;SDS011;7344;50.864;4.362;2022-12-16T10:53:43;31.83;;;20.37;;
14516;SDS011;7344;50.864;4.362;2022-12-16T10:56:35;30.50;;;18.80;;
14516;SDS011;7344;50.864;4.362;2022-12-16T10:59:34;32.17;;;18.67;;
14516;SDS011;7344;50.864;4.362;2022-12-16T11:02:20;26.53;;;18.17;;
14516;SDS011;7344;50.864;4.362;2022-12-16T11:05:52;27.73;;;18.33;;
14516;SDS011;7344;50.864;4.362;2022-12-16T11:08:30;31.50;;;18.97;;
14516;SDS011;7344;50.864;4.362;2022-12-16T11:11:22;30.87;;;18.93;;
14516;SDS011;7344;50.864;4.362;2022-12-16T11:14:51;29.67;;;19.40;;
14516;SDS011;7344;50.864;4.362;2022-12-16T11:17:17;33.37;;;19.97;;
14516;SDS011;7344;50.864;4.362;2022-12-16T11:20:07;32.03;;;18.90;;
14516;SDS011;7344;50.864;4.362;2022-12-16T11:26:12;31.00;;;20.00;;
14516;SDS011;7344;50.864;4.362;2022-12-16T11:29:12;32.33;;;19.70;;
14516;SDS011;7344;50.864;4.362;2022-12-16T11:32:20;30.73;;;20.47;;
14516;SDS011;7344;50.864;4.362;2022-12-16T11:35:14;30.60;;;19.40;;
14516;SDS011;7344;50.864;4.362;2022-12-16T11:38:02;29.03;;;19.33;;
14516;SDS011;7344;50.864;4.362;2022-12-16T11:40:48;32.10;;;20.23;;
14516;SDS011;7344;50.864;4.362;2022-12-16T11:43:33;28.00;;;19.10;;
14516;SDS011;7344;50.864;4.362;2022-12-16T11:46:26;30.43;;;18.53;;
14516;SDS011;7344;50.864;4.362;2022-12-16T11:49:27;28.90;;;18.77;;
14516;SDS011;7344;50.864;4.362;2022-12-16T11:52:18;26.23;;;19.20;;
14516;SDS011;7344;50.864;4.362;2022-12-16T11:55:15;30.47;;;20.03;;
14516;SDS011;7344;50.864;4.362;2022-12-16T12:01:36;31.53;;;21.33;;
14516;SDS011;7344;50.864;4.362;2022-12-16T12:04:27;32.30;;;20.73;;
14516;SDS011;7344;50.864;4.362;2022-12-16T12:07:20;28.40;;;20.43;;
14516;SDS011;7344;50.864;4.362;2022-12-16T12:13:04;33.10;;;21.03;;
14516;SDS011;7344;50.864;4.362;2022-12-16T12:16:04;27.97;;;19.30;;
14516;SDS011;7344;50.864;4.362;2022-12-16T12:19:00;30.40;;;19.40;;
14516;SDS011;7344;50.864;4.362;2022-12-16T12:22:33;27.97;;;18.77;;
14516;SDS011;7344;50.864;4.362;2022-12-16T12:28:19;28.93;;;19.03;;
14516;SDS011;7344;50.864;4.362;2022-12-16T12:34:23;29.83;;;20.23;;
14516;SDS011;7344;50.864;4.362;2022-12-16T12:37:28;34.57;;;20.27;;
14516;SDS011;7344;50.864;4.362;2022-12-16T12:43:31;29.83;;;18.43;;
14516;SDS011;7344;50.864;4.362;2022-12-16T12:46:33;33.47;;;18.93;;
14516;SDS011;7344;50.864;4.362;2022-12-16T12:53:04;35.93;;;18.47;;
14516;SDS011;7344;50.864;4.362;2022-12-16T12:55:54;32.73;;;18.90;;
14516;SDS011;7344;50.864;4.362;2022-12-16T12:58:43;33.50;;;19.73;;
14516;SDS011;7344;50.864;4.362;2022-12-16T13:01:28;29.83;;;16.53;;
14516;SDS011;7344;50.864;4.362;2022-12-16T13:04:15;29.30;;;17.17;;
14516;SDS011;7344;50.864;4.362;2022-12-16T13:07:02;28.57;;;17.50;;
14516;SDS011;7344;50.864;4.362;2022-12-16T13:10:10;27.03;;;17.60;;
14516;SDS011;7344;50.864;4.362;2022-12-16T13:16:00;23.73;;;16.07;;
14516;SDS011;7344;50.864;4.362;2022-12-16T13:18:45;26.90;;;15.83;;
14516;SDS011;7344;50.864;4.362;2022-12-16T13:24:19;22.57;;;13.20;;
14516;SDS011;7344;50.864;4.362;2022-12-16T13:27:18;27.53;;;15.17;;
14516;SDS011;7344;50.864;4.362;2022-12-16T13:32:57;32.97;;;17.23;;
14516;SDS011;7344;50.864;4.362;2022-12-16T13:36:15;24.70;;;15.67;;
14516;SDS011;7344;50.864;4.362;2022-12-16T13:39:22;27.17;;;17.13;;
14516;SDS011;7344;50.864;4.362;2022-12-16T13:48:39;28.87;;;15.73;;
14516;SDS011;7344;50.864;4.362;2022-12-16T13:54:22;29.43;;;16.37;;
14516;SDS011;7344;50.864;4.362;2022-12-16T13:57:15;29.73;;;16.27;;
14516;SDS011;7344;50.864;4.362;2022-12-16T14:00:03;27.50;;;16.03;;
14516;SDS011;7344;50.864;4.362;2022-12-16T14:02:56;28.47;;;16.17;;
14516;SDS011;7344;50.864;4.362;2022-12-16T14:05:41;22.87;;;14.97;;
14516;SDS011;7344;50.864;4.362;2022-12-16T14:08:25;25.87;;;15.33;;
14516;SDS011;7344;50.864;4.362;2022-12-16T14:11:20;28.37;;;15.60;;
14516;SDS011;7344;50.864;4.362;2022-12-16T14:17:00;21.87;;;12.93;;
14516;SDS011;7344;50.864;4.362;2022-12-16T14:19:49;22.73;;;13.40;;
14516;SDS011;7344;50.864;4.362;2022-12-16T14:22:45;21.37;;;14.73;;
14516;SDS011;7344;50.864;4.362;2022-12-16T14:25:35;23.47;;;14.37;;
14516;SDS011;7344;50.864;4.362;2022-12-16T14:28:36;23.47;;;14.50;;
14516;SDS011;7344;50.864;4.362;2022-12-16T14:34:21;19.17;;;13.50;;
14516;SDS011;7344;50.864;4.362;2022-12-16T14:37:34;23.13;;;15.63;;
14516;SDS011;7344;50.864;4.362;2022-12-16T14:40:37;25.93;;;15.73;;
14516;SDS011;7344;50.864;4.362;2022-12-16T14:43:23;23.47;;;14.67;;
14516;SDS011;7344;50.864;4.362;2022-12-16T14:46:42;23.63;;;13.77;;
14516;SDS011;7344;50.864;4.362;2022-12-16T14:49:23;23.57;;;13.47;;
14516;SDS011;7344;50.864;4.362;2022-12-16T14:52:16;20.83;;;13.40;;
14516;SDS011;7344;50.864;4.362;2022-12-16T14:55:11;21.83;;;13.20;;
14516;SDS011;7344;50.864;4.362;2022-12-16T15:00:54;21.83;;;13.07;;
14516;SDS011;7344;50.864;4.362;2022-12-16T15:03:44;27.07;;;14.10;;
14516;SDS011;7344;50.864;4.362;2022-12-16T15:06:31;22.93;;;14.20;;
14516;SDS011;7344;50.864;4.362;2022-12-16T15:09:22;21.33;;;13.87;;
14516;SDS011;7344;50.864;4.362;2022-12-16T15:12:16;26.13;;;14.83;;
14516;SDS011;7344;50.864;4.362;2022-12-16T15:15:04;20.07;;;13.27;;
14516;SDS011;7344;50.864;4.362;2022-12-16T15:17:54;21.07;;;12.93;;
14516;SDS011;7344;50.864;4.362;2022-12-16T15:23:37;21.90;;;13.33;;
14516;SDS011;7344;50.864;4.362;2022-12-16T15:26:25;20.90;;;13.57;;
14516;SDS011;7344;50.864;4.362;2022-12-16T15:32:33;22.77;;;13.73;;
14516;SDS011;7344;50.864;4.362;2022-12-16T15:35:25;24.43;;;13.40;;
14516;SDS011;7344;50.864;4.362;2022-12-16T15:41:02;21.97;;;13.23;;
14516;SDS011;7344;50.864;4.362;2022-12-16T15:43:48;20.97;;;13.43;;
14516;SDS011;7344;50.864;4.362;2022-12-16T15:46:33;21.30;;;13.70;;
14516;SDS011;7344;50.864;4.362;2022-12-16T15:58:28;24.90;;;15.10;;
14516;SDS011;7344;50.864;4.362;2022-12-16T16:01:26;26.43;;;15.87;;
14516;SDS011;7344;50.864;4.362;2022-12-16T16:04:18;24.37;;;15.10;;
14516;SDS011;7344;50.864;4.362;2022-12-16T16:07:16;24.40;;;15.70;;
14516;SDS011;7344;50.864;4.362;2022-12-16T16:12:59;27.87;;;15.90;;
14516;SDS011;7344;50.864;4.362;2022-12-16T16:15:44;29.47;;;18.00;;
14516;SDS011;7344;50.864;4.362;2022-12-16T16:18:28;30.93;;;18.93;;
14516;SDS011;7344;50.864;4.362;2022-12-16T16:21:23;25.27;;;16.27;;
14516;SDS011;7344;50.864;4.362;2022-12-16T16:24:07;27.37;;;17.13;;
14516;SDS011;7344;50.864;4.362;2022-12-16T16:26:55;28.33;;;16.63;;
14516;SDS011;7344;50.864;4.362;2022-12-16T16:29:42;29.50;;;18.57;;
14516;SDS011;7344;50.864;4.362;2022-12-16T16:32:26;48.83;;;27.97;;
14516;SDS011;7344;50.864;4.362;2022-12-16T16:35:10;34.17;;;19.13;;
14516;SDS011;7344;50.864;4.362;2022-12-16T16:37:55;34.20;;;19.87;;
14516;SDS011;7344;50.864;4.362;2022-12-16T16:40:40;42.83;;;25.00;;
14516;SDS011;7344;50.864;4.362;2022-12-16T16:43:25;61.33;;;39.33;;
14516;SDS011;7344;50.864;4.362;2022-12-16T16:46:32;42.63;;;24.30;;
14516;SDS011;7344;50.864;4.362;2022-12-16T16:49:18;41.20;;;22.60;;
14516;SDS011;7344;50.864;4.362;2022-12-16T16:52:11;39.60;;;25.43;;
14516;SDS011;7344;50.864;4.362;2022-12-16T16:54:57;40.10;;;24.33;;
14516;SDS011;7344;50.864;4.362;2022-12-16T16:57:41;39.70;;;24.50;;
14516;SDS011;7344;50.864;4.362;2022-12-16T17:00:26;40.57;;;25.30;;
14516;SDS011;7344;50.864;4.362;2022-12-16T17:03:10;40.67;;;23.57;;
14516;SDS011;7344;50.864;4.362;2022-12-16T17:05:54;40.73;;;25.83;;
14516;SDS011;7344;50.864;4.362;2022-12-16T17:08:38;41.47;;;27.20;;
14516;SDS011;7344;50.864;4.362;2022-12-16T17:11:22;46.47;;;29.27;;
14516;SDS011;7344;50.864;4.362;2022-12-16T17:14:10;49.53;;;28.37;;
14516;SDS011;7344;50.864;4.362;2022-12-16T17:16:56;49.97;;;28.07;;
14516;SDS011;7344;50.864;4.362;2022-12-16T17:19:40;46.57;;;27.83;;
14516;SDS011;7344;50.864;4.362;2022-12-16T17:22:24;52.07;;;28.13;;
14516;SDS011;7344;50.864;4.362;2022-12-16T17:25:08;49.10;;;28.00;;
14516;SDS011;7344;50.864;4.362;2022-12-16T17:27:52;49.77;;;30.83;;
14516;SDS011;7344;50.864;4.362;2022-12-16T17:30:36;52.73;;;29.47;;
14516;SDS011;7344;50.864;4.362;2022-12-16T17:33:20;50.57;;;28.83;;
14516;SDS011;7344;50.864;4.362;2022-12-16T17:36:04;52.60;;;29.87;;
14516;SDS011;7344;50.864;4.362;2022-12-16T17:38:49;52.30;;;30.47;;
14516;SDS011;7344;50.864;4.362;2022-12-16T17:41:33;51.53;;;29.50;;
14516;SDS011;7344;50.864;4.362;2022-12-16T17:44:34;56.03;;;31.43;;
14516;SDS011;7344;50.864;4.362;2022-12-16T17:47:18;56.53;;;32.40;;
14516;SDS011;7344;50.864;4.362;2022-12-16T17:50:02;54.93;;;29.93;;
14516;SDS011;7344;50.864;4.362;2022-12-16T17:52:49;54.93;;;32.80;;
14516;SDS011;7344;50.864;4.362;2022-12-16T17:55:36;65.30;;;32.60;;
14516;SDS011;7344;50.864;4.362;2022-12-16T17:58:23;63.00;;;33.67;;
14516;SDS011;7344;50.864;4.362;2022-12-16T18:01:12;95.03;;;47.63;;
14516;SDS011;7344;50.864;4.362;2022-12-16T18:03:56;68.30;;;34.23;;